Terminal Aerodrome Forecast
Issued by NWS

Home | Current Version | Previous Version | Text Only | Print | Product List | Glossary On
Versions: 1 2 3 4 5 6 7 8 9 10 11 12
010
FTUS46 KMTR 301720
TAFOAK
TAF
KOAK 301720Z 3018/0124 27006KT P6SM SKC
     FM301900 31007KT P6SM SKC
     FM302100 29013KT P6SM SKC
     FM010300 28008KT P6SM SKC
     FM010800 VRB03KT P6SM FEW008
     FM011800 28012KT P6SM SKC=

USA.gov is the U.S. government's official web portal to all federal, state and local government web resources and services.